Paoli, Indiana
Current Conditions -  °F | °C
As of 8:15 AM on Thursday 18 Dec 2014 (Local Time) from KHNB Reporting Station
Broken Clouds Broken Clouds  
Wind Chill: -5°   Ceiling: 7500
Heat Index: -2°   Visibility: 8mi
Dew Point: -6°   Wind: 5mph
Humidity: 74%   Direction: 20°NNE
Pressure: 30.3"   Gusts: NA
Location:  38.56°N, 86.47°W
Report Text: KHNB 181315Z AUTO 02004KT 8SM BKN075 M02/M06 A3030 RMK AO1
Loading
Personal Weather Stations






























Interactive Weather Map New forecast layout! Learn more

10-Day Weather Forecast

Advertisements
Track Severe Weather on mobile